createdAt,value
2024-02-19T00:02:16.163Z,10.14
2024-02-19T00:05:21.463Z,10.12
2024-02-19T00:08:24.861Z,10.10
2024-02-19T00:11:22.390Z,10.10
2024-02-19T00:14:27.840Z,10.11
2024-02-19T00:17:33.365Z,10.12
2024-02-19T00:20:34.899Z,10.13
2024-02-19T00:23:28.110Z,10.13
2024-02-19T00:26:40.818Z,10.13
2024-02-19T00:29:35.809Z,10.13
2024-02-19T00:32:41.516Z,10.14
2024-02-19T00:35:55.209Z,10.15
2024-02-19T00:39:00.592Z,10.17
2024-02-19T00:42:13.284Z,10.18
2024-02-19T00:45:26.408Z,10.20
2024-02-19T00:48:28.363Z,10.24
2024-02-19T00:51:41.224Z,10.26
2024-02-19T00:54:48.751Z,10.25
2024-02-19T00:57:44.557Z,10.23
2024-02-19T01:00:59.833Z,10.19
2024-02-19T01:04:03.070Z,10.15
2024-02-19T01:07:17.490Z,10.12
2024-02-19T01:10:30.448Z,10.08
2024-02-19T01:13:37.446Z,10.03
2024-02-19T01:16:30.524Z,10.02
2024-02-19T01:19:34.561Z,10.01
2024-02-19T01:22:40.547Z,10.02
2024-02-19T01:25:47.474Z,10.05
2024-02-19T01:28:57.917Z,10.06
2024-02-19T01:31:53.235Z,10.08
2024-02-19T01:34:48.257Z,10.09
2024-02-19T01:37:43.504Z,10.10
2024-02-19T01:40:39.085Z,10.08
2024-02-19T01:43:45.617Z,10.05
2024-02-19T01:46:42.175Z,10.00
2024-02-19T01:49:55.757Z,9.91
2024-02-19T01:53:12.220Z,9.79
2024-02-19T01:56:11.365Z,9.70
2024-02-19T01:59:18.789Z,9.64
2024-02-19T02:02:23.417Z,9.60
2024-02-19T02:05:30.532Z,9.59
2024-02-19T02:08:43.399Z,9.58
2024-02-19T02:11:48.950Z,9.59
2024-02-19T02:14:53.576Z,9.60
2024-02-19T02:18:06.593Z,9.61
2024-02-19T02:20:59.576Z,9.63
2024-02-19T02:24:12.686Z,9.65
2024-02-19T02:27:05.684Z,9.66
2024-02-19T02:30:13.245Z,9.68
2024-02-19T02:33:06.278Z,9.68
2024-02-19T02:35:59.295Z,9.65
2024-02-19T02:38:52.379Z,9.60
2024-02-19T02:41:48.844Z,9.55
2024-02-19T02:44:52.616Z,9.53
2024-02-19T02:48:05.535Z,9.51
2024-02-19T02:51:18.496Z,9.49
2024-02-19T02:54:21.340Z,9.47
2024-02-19T02:57:23.895Z,9.45
2024-02-19T03:00:37.091Z,9.44
2024-02-19T03:03:48.782Z,9.41
2024-02-19T03:07:02.342Z,9.38
2024-02-19T03:10:04.053Z,9.35
2024-02-19T03:13:01.521Z,9.34
2024-02-19T03:15:56.976Z,9.33
2024-02-19T03:18:49.838Z,9.34
2024-02-19T03:22:01.643Z,9.38
2024-02-19T03:25:13.684Z,9.42
2024-02-19T03:28:18.310Z,9.42
2024-02-19T03:31:31.352Z,9.40
2024-02-19T03:34:37.988Z,9.37
2024-02-19T03:37:41.175Z,9.33
2024-02-19T03:40:46.637Z,9.28
2024-02-19T03:43:50.900Z,9.25
2024-02-19T03:47:03.618Z,9.21
2024-02-19T03:50:15.627Z,9.18
2024-02-19T03:53:21.730Z,9.14
2024-02-19T03:56:14.345Z,9.12
2024-02-19T03:59:20.812Z,9.11
2024-02-19T04:02:25.282Z,9.10
2024-02-19T04:05:31.343Z,9.10
2024-02-19T04:08:44.338Z,9.09
2024-02-19T04:11:47.489Z,9.08
2024-02-19T04:14:45.183Z,9.09
2024-02-19T04:17:57.880Z,9.08
2024-02-19T04:21:10.773Z,9.10
2024-02-19T04:24:23.713Z,9.11
2024-02-19T04:27:22.223Z,9.10
2024-02-19T04:30:49.176Z,9.11
2024-02-19T04:34:02.093Z,9.11
2024-02-19T04:37:13.482Z,9.09
2024-02-19T04:40:26.152Z,9.09
2024-02-19T04:43:39.239Z,9.08
2024-02-19T04:46:41.666Z,9.08
2024-02-19T04:49:54.581Z,9.08
2024-02-19T04:52:57.844Z,9.07
2024-02-19T04:55:50.256Z,9.04
2024-02-19T04:59:03.400Z,9.02
2024-02-19T05:01:56.855Z,9.02
2024-02-19T05:04:55.252Z,9.03
2024-02-19T05:08:07.842Z,9.07
2024-02-19T05:11:00.769Z,9.11
2024-02-19T05:14:13.720Z,9.17
2024-02-19T05:17:18.470Z,9.22
2024-02-19T05:20:14.510Z,9.25
2024-02-19T05:23:07.311Z,9.26
2024-02-19T05:26:28.482Z,9.28
2024-02-19T05:29:41.143Z,9.31
2024-02-19T05:32:46.692Z,9.33
2024-02-19T05:35:51.336Z,9.34
2024-02-19T05:38:56.529Z,9.33
2024-02-19T05:41:52.006Z,9.33
2024-02-19T05:44:47.825Z,9.33
2024-02-19T05:47:40.535Z,9.32
2024-02-19T05:50:53.136Z,9.32
2024-02-19T05:53:55.920Z,9.29
2024-02-19T05:56:52.042Z,9.24
2024-02-19T05:59:58.855Z,9.20
2024-02-19T06:03:05.472Z,9.17
2024-02-19T06:06:18.161Z,9.13
2024-02-19T06:09:21.052Z,9.11
2024-02-19T06:12:33.850Z,9.12
2024-02-19T06:15:36.702Z,9.13
2024-02-19T06:18:41.778Z,9.13
2024-02-19T06:21:46.252Z,9.11
2024-02-19T06:24:44.612Z,9.11
2024-02-19T06:27:50.043Z,9.07
2024-02-19T06:31:03.586Z,9.02
2024-02-19T06:34:16.566Z,8.97
2024-02-19T06:37:22.947Z,8.93
2024-02-19T06:40:35.761Z,8.89
2024-02-19T06:43:48.555Z,8.86
2024-02-19T06:47:01.492Z,8.81
2024-02-19T06:50:15.383Z,8.76
2024-02-19T06:53:21.826Z,8.72
2024-02-19T06:56:15.142Z,8.69
2024-02-19T06:59:20.892Z,8.67
2024-02-19T07:02:33.812Z,8.66
2024-02-19T07:05:45.114Z,8.64
2024-02-19T07:08:37.619Z,8.60
2024-02-19T07:11:30.322Z,8.57
2024-02-19T07:14:22.954Z,8.55
2024-02-19T07:17:20.892Z,8.54
2024-02-19T07:20:27.661Z,8.52
2024-02-19T07:23:32.662Z,8.50
2024-02-19T07:26:27.860Z,8.48
2024-02-19T07:29:39.885Z,8.45
2024-02-19T07:32:32.540Z,8.44
2024-02-19T07:35:45.384Z,8.43
2024-02-19T07:38:51.883Z,8.43
2024-02-19T07:42:04.337Z,8.41
2024-02-19T07:45:08.127Z,8.41
2024-02-19T07:48:20.696Z,8.41
2024-02-19T07:51:20.950Z,8.42
2024-02-19T07:54:27.032Z,8.46
2024-02-19T07:57:39.957Z,8.53
2024-02-19T08:00:53.151Z,8.58
2024-02-19T08:04:06.830Z,8.59
2024-02-19T08:07:21.521Z,8.61
2024-02-19T08:10:17.098Z,8.63
2024-02-19T08:13:23.438Z,8.65
2024-02-19T08:16:16.665Z,8.68
2024-02-19T08:19:09.430Z,8.73
2024-02-19T08:22:02.038Z,8.77
2024-02-19T08:25:09.302Z,8.83
2024-02-19T08:28:13.288Z,8.89
2024-02-19T08:31:08.489Z,8.92
2024-02-19T08:34:21.839Z,8.95
2024-02-19T08:37:27.373Z,8.97
2024-02-19T08:40:30.779Z,9.00
2024-02-19T08:43:34.130Z,9.04
2024-02-19T08:46:36.726Z,9.09
2024-02-19T08:49:33.250Z,9.15
2024-02-19T08:52:45.886Z,9.24
2024-02-19T08:55:45.654Z,9.32
2024-02-19T08:58:50.328Z,9.38
2024-02-19T09:01:59.004Z,9.43
2024-02-19T09:04:52.100Z,9.47
2024-02-19T09:07:58.103Z,9.50
2024-02-19T09:11:02.157Z,9.53
2024-02-19T09:14:07.501Z,9.50
2024-02-19T09:17:00.389Z,9.48
2024-02-19T09:20:04.229Z,9.48
2024-02-19T09:22:56.730Z,9.53
2024-02-19T09:26:02.210Z,9.60
2024-02-19T09:28:54.522Z,9.67
2024-02-19T09:32:01.741Z,9.74
2024-02-19T09:34:54.403Z,9.84
2024-02-19T09:38:07.583Z,9.96
2024-02-19T09:41:06.034Z,10.11
2024-02-19T09:43:58.568Z,10.27
2024-02-19T09:46:59.224Z,10.37
2024-02-19T09:49:52.434Z,10.50
2024-02-19T09:52:47.263Z,10.58
2024-02-19T09:55:39.369Z,10.67
2024-02-19T09:58:37.032Z,10.88
2024-02-19T10:01:29.773Z,11.05
2024-02-19T10:04:22.789Z,11.09
2024-02-19T10:07:17.881Z,11.11
2024-02-19T10:10:18.548Z,11.16
2024-02-19T10:13:13.449Z,11.20
2024-02-19T10:16:07.716Z,11.24
2024-02-19T10:19:09.137Z,11.23
2024-02-19T10:22:02.689Z,11.16
2024-02-19T10:24:56.020Z,11.08
2024-02-19T10:28:00.162Z,11.00
2024-02-19T10:30:52.829Z,10.97
2024-02-19T10:33:46.364Z,10.95
2024-02-19T10:36:39.771Z,10.93
2024-02-19T10:39:52.711Z,10.90
2024-02-19T10:42:45.484Z,10.91
2024-02-19T10:45:44.009Z,10.97
2024-02-19T10:48:39.912Z,11.13
2024-02-19T10:51:33.401Z,11.32
2024-02-19T10:54:25.852Z,11.50
2024-02-19T10:57:22.267Z,11.71
2024-02-19T11:00:27.412Z,11.95
2024-02-19T11:03:19.366Z,12.22
2024-02-19T11:06:13.356Z,12.53
2024-02-19T11:09:14.115Z,12.64
2024-02-19T11:12:07.836Z,12.81
2024-02-19T11:15:03.409Z,13.74
2024-02-19T11:18:09.941Z,14.64
2024-02-19T11:21:08.433Z,15.42
2024-02-19T11:24:00.647Z,16.05
2024-02-19T11:26:53.063Z,16.37
2024-02-19T11:29:48.179Z,16.71
2024-02-19T11:32:41.144Z,17.12
2024-02-19T11:35:36.753Z,17.90
2024-02-19T11:38:31.419Z,19.31
2024-02-19T11:41:23.421Z,20.26
2024-02-19T11:44:16.850Z,19.79
2024-02-19T11:47:11.262Z,19.70
2024-02-19T11:50:06.298Z,19.86
2024-02-19T11:53:00.200Z,20.71
2024-02-19T11:56:02.700Z,20.91
2024-02-19T11:58:55.911Z,20.33
2024-02-19T12:01:53.925Z,19.81
2024-02-19T12:04:52.113Z,19.37
2024-02-19T12:07:44.932Z,18.65
2024-02-19T12:10:39.871Z,17.77
2024-02-19T12:13:34.038Z,16.93
2024-02-19T12:16:29.384Z,16.41
2024-02-19T12:19:21.900Z,15.86
2024-02-19T12:22:14.280Z,15.53
2024-02-19T12:25:07.364Z,15.17
2024-02-19T12:28:00.345Z,14.79
2024-02-19T12:30:53.104Z,14.42
2024-02-19T12:33:46.474Z,14.15
2024-02-19T12:36:39.260Z,13.99
2024-02-19T12:39:32.118Z,13.97
2024-02-19T12:42:25.155Z,14.04
2024-02-19T12:45:19.026Z,14.05
2024-02-19T12:48:15.007Z,13.89
2024-02-19T12:51:09.096Z,13.73
2024-02-19T12:54:01.124Z,13.62
2024-02-19T12:56:53.572Z,13.53
2024-02-19T12:59:48.272Z,13.30
2024-02-19T13:02:41.174Z,13.02
2024-02-19T13:05:36.936Z,12.90
2024-02-19T13:08:31.995Z,12.93
2024-02-19T13:11:26.609Z,13.15
2024-02-19T13:14:19.337Z,13.47
2024-02-19T13:17:15.100Z,13.76
2024-02-19T13:20:14.509Z,14.00
2024-02-19T13:23:06.720Z,13.92
2024-02-19T13:26:03.969Z,13.78
2024-02-19T13:28:56.473Z,13.69
2024-02-19T13:31:49.154Z,13.63
2024-02-19T13:34:41.951Z,13.53
2024-02-19T13:37:35.226Z,13.50
2024-02-19T13:40:27.828Z,13.49
2024-02-19T13:43:21.689Z,13.54
2024-02-19T13:46:14.728Z,13.52
2024-02-19T13:49:12.222Z,13.53
2024-02-19T13:52:05.285Z,13.57
2024-02-19T13:55:00.140Z,13.63
2024-02-19T13:57:53.435Z,13.70
2024-02-19T14:00:47.273Z,13.75
2024-02-19T14:03:39.597Z,13.69
2024-02-19T14:06:34.030Z,13.64
2024-02-19T14:09:29.908Z,13.55
2024-02-19T14:12:22.314Z,13.45
2024-02-19T14:15:15.046Z,13.37
2024-02-19T14:18:11.822Z,13.35
2024-02-19T14:21:06.044Z,13.30
2024-02-19T14:24:02.077Z,13.20
2024-02-19T14:26:54.785Z,13.11
2024-02-19T14:29:50.026Z,13.05
2024-02-19T14:32:44.310Z,13.02
2024-02-19T14:35:37.057Z,12.96
2024-02-19T14:38:29.728Z,12.86
2024-02-19T14:41:33.199Z,12.79
2024-02-19T14:44:26.090Z,12.72
2024-02-19T14:47:18.614Z,12.65
2024-02-19T14:50:13.122Z,12.56
2024-02-19T14:53:09.145Z,12.51
2024-02-19T14:56:03.912Z,12.49
2024-02-19T14:58:57.586Z,12.48
2024-02-19T15:01:50.080Z,12.46
2024-02-19T15:04:43.082Z,12.44
2024-02-19T15:07:35.745Z,12.46
2024-02-19T15:10:29.429Z,12.49
2024-02-19T15:13:23.914Z,12.49
2024-02-19T15:16:16.517Z,12.51
2024-02-19T15:19:18.860Z,12.53
2024-02-19T15:22:14.912Z,12.49
2024-02-19T15:25:12.135Z,12.44
2024-02-19T15:28:13.928Z,12.41
2024-02-19T15:31:09.222Z,12.42
2024-02-19T15:34:02.152Z,12.45
2024-02-19T15:36:54.798Z,12.42
2024-02-19T15:39:50.325Z,12.42
2024-02-19T15:42:45.618Z,12.43
2024-02-19T15:45:39.481Z,12.39
2024-02-19T15:48:34.087Z,12.34
2024-02-19T15:51:31.074Z,12.28
2024-02-19T15:54:30.917Z,12.22
2024-02-19T15:57:24.111Z,12.13
2024-02-19T16:00:19.102Z,12.06
2024-02-19T16:03:23.373Z,12.01
2024-02-19T16:06:19.344Z,11.97
2024-02-19T16:09:21.353Z,11.92
2024-02-19T16:12:13.893Z,11.89
2024-02-19T16:15:09.757Z,11.84
2024-02-19T16:18:14.551Z,11.78
2024-02-19T16:21:15.012Z,11.73
2024-02-19T16:24:08.740Z,11.69
2024-02-19T16:27:06.518Z,11.65
2024-02-19T16:30:06.266Z,11.62
2024-02-19T16:33:02.016Z,11.60
2024-02-19T16:35:54.960Z,11.57
2024-02-19T16:38:48.550Z,11.53
2024-02-19T16:41:50.492Z,11.50
2024-02-19T16:44:43.089Z,11.47
2024-02-19T16:47:35.906Z,11.44
2024-02-19T16:50:28.954Z,11.40
2024-02-19T16:53:21.351Z,11.35
2024-02-19T16:56:23.831Z,11.30
2024-02-19T16:59:37.714Z,11.27
2024-02-19T17:02:40.247Z,11.24
2024-02-19T17:05:35.729Z,11.21
2024-02-19T17:08:28.791Z,11.16
2024-02-19T17:11:30.595Z,11.11
2024-02-19T17:14:23.347Z,11.07
2024-02-19T17:17:15.984Z,11.02
2024-02-19T17:20:20.066Z,10.97
2024-02-19T17:23:21.584Z,10.90
2024-02-19T17:26:14.116Z,10.83
2024-02-19T17:29:09.373Z,10.78
2024-02-19T17:32:05.198Z,10.72
2024-02-19T17:35:05.728Z,10.67
2024-02-19T17:37:58.286Z,10.62
2024-02-19T17:40:51.062Z,10.56
2024-02-19T17:43:54.628Z,10.50
2024-02-19T17:47:08.716Z,10.44
2024-02-19T17:50:02.092Z,10.40
2024-02-19T17:52:56.760Z,10.39
2024-02-19T17:56:01.406Z,10.35
2024-02-19T17:59:06.806Z,10.32
2024-02-19T18:02:13.304Z,10.30
2024-02-19T18:05:05.760Z,10.25
2024-02-19T18:08:06.292Z,10.21
2024-02-19T18:11:02.629Z,10.18
2024-02-19T18:14:06.896Z,10.16
2024-02-19T18:17:20.211Z,10.15
2024-02-19T18:20:34.378Z,10.14
2024-02-19T18:23:48.629Z,10.13
2024-02-19T18:26:41.116Z,10.12
2024-02-19T18:29:46.489Z,10.10
2024-02-19T18:32:50.540Z,10.08
2024-02-19T18:35:42.989Z,10.05
2024-02-19T18:38:56.270Z,10.03
2024-02-19T18:41:58.938Z,10.01
2024-02-19T18:45:13.093Z,10.00
2024-02-19T18:48:16.786Z,9.98
2024-02-19T18:51:19.404Z,9.97
2024-02-19T18:54:23.737Z,9.96
2024-02-19T18:57:16.726Z,9.95
2024-02-19T19:00:20.368Z,9.93
2024-02-19T19:03:28.523Z,9.89
2024-02-19T19:06:31.691Z,9.85
2024-02-19T19:09:45.275Z,9.82
2024-02-19T19:12:37.993Z,9.80
2024-02-19T19:15:54.924Z,9.80
2024-02-19T19:18:50.270Z,9.81
2024-02-19T19:21:44.477Z,9.82
2024-02-19T19:24:43.609Z,9.82
2024-02-19T19:27:43.452Z,9.82
2024-02-19T19:30:46.562Z,9.81
2024-02-19T19:33:45.595Z,9.78
2024-02-19T19:36:41.565Z,9.75
2024-02-19T19:39:54.803Z,9.72
2024-02-19T19:43:07.755Z,9.70
2024-02-19T19:46:16.034Z,9.69
2024-02-19T19:49:23.772Z,9.69
2024-02-19T19:52:26.714Z,9.72
2024-02-19T19:55:19.272Z,9.72
2024-02-19T19:58:33.427Z,9.72
2024-02-19T20:01:25.811Z,9.72
2024-02-19T20:04:21.081Z,9.70
2024-02-19T20:07:27.859Z,9.67
2024-02-19T20:10:20.497Z,9.63
2024-02-19T20:13:25.713Z,9.60
2024-02-19T20:16:22.366Z,9.58
2024-02-19T20:19:15.569Z,9.57
2024-02-19T20:22:08.556Z,9.58
2024-02-19T20:25:00.909Z,9.57
2024-02-19T20:28:07.586Z,9.55
2024-02-19T20:31:20.283Z,9.52
2024-02-19T20:34:23.321Z,9.48
2024-02-19T20:37:30.512Z,9.45
2024-02-19T20:40:23.205Z,9.42
2024-02-19T20:43:29.827Z,9.42
2024-02-19T20:46:23.077Z,9.44
2024-02-19T20:49:15.596Z,9.46
2024-02-19T20:52:09.322Z,9.48
2024-02-19T20:55:01.944Z,9.51
2024-02-19T20:57:56.126Z,9.54
2024-02-19T21:00:48.622Z,9.57
2024-02-19T21:03:45.809Z,9.58
2024-02-19T21:06:42.286Z,9.59
2024-02-19T21:09:36.543Z,9.58
2024-02-19T21:12:32.531Z,9.57
2024-02-19T21:15:25.610Z,9.56
2024-02-19T21:18:30.624Z,9.57
2024-02-19T21:21:33.932Z,9.58
2024-02-19T21:24:27.811Z,9.59
2024-02-19T21:27:20.822Z,9.59
2024-02-19T21:30:14.302Z,9.58
2024-02-19T21:33:07.122Z,9.57
2024-02-19T21:36:09.019Z,9.56
2024-02-19T21:39:06.892Z,9.56
2024-02-19T21:41:59.573Z,9.57
2024-02-19T21:44:52.465Z,9.59
2024-02-19T21:47:45.855Z,9.62
2024-02-19T21:50:38.643Z,9.62
2024-02-19T21:53:31.223Z,9.63
2024-02-19T21:56:43.894Z,9.62
2024-02-19T21:59:57.111Z,9.59
2024-02-19T22:02:49.812Z,9.59
2024-02-19T22:05:45.803Z,9.59
2024-02-19T22:09:01.417Z,9.59
2024-02-19T22:11:54.269Z,9.59
2024-02-19T22:14:56.697Z,9.57
2024-02-19T22:17:49.522Z,9.55
2024-02-19T22:20:42.089Z,9.52
2024-02-19T22:23:47.844Z,9.50
2024-02-19T22:26:40.005Z,9.48
2024-02-19T22:29:35.872Z,9.48
2024-02-19T22:32:33.257Z,9.48
2024-02-19T22:35:37.939Z,9.48
2024-02-19T22:38:30.565Z,9.48
2024-02-19T22:41:45.673Z,9.46
2024-02-19T22:44:41.574Z,9.43
2024-02-19T22:47:43.123Z,9.40
2024-02-19T22:50:56.313Z,9.39
2024-02-19T22:53:48.789Z,9.39
2024-02-19T22:57:02.794Z,9.40
2024-02-19T23:00:27.525Z,9.41
2024-02-19T23:03:33.290Z,9.44
2024-02-19T23:06:46.713Z,9.43
2024-02-19T23:09:51.817Z,9.42
2024-02-19T23:13:03.313Z,9.43
2024-02-19T23:15:56.284Z,9.46
2024-02-19T23:18:49.247Z,9.47
2024-02-19T23:21:42.044Z,9.47
2024-02-19T23:24:40.203Z,9.44
2024-02-19T23:27:52.903Z,9.40
2024-02-19T23:31:05.842Z,9.36
2024-02-19T23:34:11.784Z,9.32
2024-02-19T23:37:13.213Z,9.28
2024-02-19T23:40:20.543Z,9.27
2024-02-19T23:43:22.367Z,9.26
2024-02-19T23:46:27.295Z,9.25
2024-02-19T23:49:34.190Z,9.25
2024-02-19T23:52:26.873Z,9.26
2024-02-19T23:55:39.728Z,9.26
2024-02-19T23:58:33.495Z,9.26
